createdAt,value
2018-09-04T00:01:53.383Z,9.93
2018-09-04T00:04:21.720Z,10.40
2018-09-04T00:06:50.060Z,16.47
2018-09-04T00:09:18.420Z,20.77
2018-09-04T00:11:46.752Z,26.03
2018-09-04T00:14:15.098Z,26.10
2018-09-04T00:16:42.851Z,22.83
2018-09-04T00:19:11.778Z,20.43
2018-09-04T00:21:39.533Z,17.73
2018-09-04T00:24:08.480Z,14.60
2018-09-04T00:26:36.825Z,12.80
2018-09-04T00:29:05.393Z,11.93
2018-09-04T00:31:32.921Z,11.73
2018-09-04T00:34:01.863Z,10.77
2018-09-04T00:36:29.617Z,10.13
2018-09-04T00:38:57.951Z,9.83
2018-09-04T00:41:26.876Z,10.33
2018-09-04T00:43:55.226Z,10.47
2018-09-04T00:46:23.548Z,9.00
2018-09-04T00:48:52.040Z,10.30
2018-09-04T00:51:20.378Z,9.60
2018-09-04T00:53:48.722Z,9.67
2018-09-04T00:56:17.280Z,10.17
2018-09-04T00:58:44.810Z,10.93
2018-09-04T01:01:13.154Z,11.93
2018-09-04T01:03:41.494Z,14.00
2018-09-04T01:06:10.418Z,14.10
2018-09-04T01:08:38.754Z,15.00
2018-09-04T01:11:07.702Z,13.67
2018-09-04T01:13:34.872Z,14.40
2018-09-04T01:16:03.207Z,14.67
2018-09-04T01:18:32.142Z,12.97
2018-09-04T01:21:00.679Z,12.63
2018-09-04T01:23:29.018Z,11.07
2018-09-04T01:25:56.765Z,10.20
2018-09-04T01:28:25.116Z,9.80
2018-09-04T01:30:54.024Z,9.37
2018-09-04T01:33:21.776Z,8.60
2018-09-04T01:35:50.696Z,9.60
2018-09-04T01:38:19.022Z,9.07
2018-09-04T01:40:47.355Z,9.00
2018-09-04T01:43:15.758Z,8.73
2018-09-04T01:45:43.515Z,8.67
2018-09-04T01:48:12.426Z,9.00
2018-09-04T01:50:40.769Z,9.00
2018-09-04T01:53:09.130Z,9.90
2018-09-04T01:55:37.450Z,11.00
2018-09-04T01:58:06.083Z,12.10
2018-09-04T02:00:33.553Z,13.10
2018-09-04T02:03:02.598Z,12.90
2018-09-04T02:05:30.363Z,15.73
2018-09-04T02:07:58.702Z,17.33
2018-09-04T02:10:28.387Z,17.30
2018-09-04T02:12:55.962Z,16.73
2018-09-04T02:15:24.316Z,15.17
2018-09-04T02:17:53.341Z,13.70
2018-09-04T02:20:20.976Z,12.77
2018-09-04T02:22:49.310Z,11.60
2018-09-04T02:25:17.649Z,10.07
2018-09-04T02:27:45.987Z,9.17
2018-09-04T02:30:14.326Z,9.23
2018-09-04T02:32:43.378Z,9.20
2018-09-04T02:35:10.969Z,8.80
2018-09-04T02:37:39.304Z,8.17
2018-09-04T02:40:07.063Z,8.20
2018-09-04T02:42:36.001Z,8.73
2018-09-04T02:45:04.355Z,7.83
2018-09-04T02:47:32.125Z,8.33
2018-09-04T02:50:01.045Z,9.23
2018-09-04T02:52:29.375Z,8.57
2018-09-04T02:54:57.691Z,8.10
2018-09-04T02:57:25.451Z,8.40
2018-09-04T02:59:53.801Z,8.73
2018-09-04T03:02:22.140Z,10.10
2018-09-04T03:04:51.060Z,12.87
2018-09-04T03:07:19.393Z,16.73
2018-09-04T03:09:47.728Z,21.73
2018-09-04T03:12:16.081Z,25.83
2018-09-04T03:14:44.408Z,26.47
2018-09-04T03:17:12.759Z,24.13
2018-09-04T03:19:40.516Z,17.03
2018-09-04T03:22:09.436Z,13.63
2018-09-04T03:24:37.787Z,12.10
2018-09-04T03:27:06.131Z,10.13
2018-09-04T03:29:36.191Z,8.90
2018-09-04T03:32:02.825Z,8.00
2018-09-04T03:34:30.584Z,8.53
2018-09-04T03:36:59.508Z,7.10
2018-09-04T03:39:27.865Z,7.93
2018-09-04T03:41:56.208Z,9.10
2018-09-04T03:44:24.006Z,9.20
2018-09-04T03:46:52.909Z,8.03
2018-09-04T03:49:21.472Z,7.60
2018-09-04T03:51:48.999Z,6.27
2018-09-04T03:54:17.908Z,5.40
2018-09-04T03:56:46.243Z,6.13
2018-09-04T03:59:14.564Z,5.70
2018-09-04T04:01:42.405Z,5.03
2018-09-04T04:04:10.638Z,5.77
2018-09-04T04:06:39.545Z,5.30
2018-09-04T04:09:07.291Z,5.90
2018-09-04T04:11:36.212Z,6.30
2018-09-04T04:14:04.546Z,6.37
2018-09-04T04:16:32.879Z,6.20
2018-09-04T04:19:00.622Z,5.73
2018-09-04T04:21:29.532Z,5.87
2018-09-04T04:23:57.945Z,5.40
2018-09-04T04:26:26.183Z,5.27
2018-09-04T04:28:54.518Z,5.90
2018-09-04T04:31:22.849Z,11.47
2018-09-04T04:33:51.193Z,11.23
2018-09-04T04:36:18.934Z,5.63
2018-09-04T04:38:47.843Z,5.03
2018-09-04T04:41:16.205Z,5.00
2018-09-04T04:43:44.514Z,5.20
2018-09-04T04:46:12.840Z,5.17
2018-09-04T04:48:41.184Z,5.30
2018-09-04T04:51:09.523Z,4.90
2018-09-04T04:53:37.862Z,5.03
2018-09-04T04:56:06.210Z,4.50
2018-09-04T04:58:33.994Z,4.20
2018-09-04T05:01:02.900Z,4.40
2018-09-04T05:03:31.242Z,4.70
2018-09-04T05:05:59.568Z,4.50
2018-09-04T05:08:27.889Z,4.63
2018-09-04T05:10:55.649Z,31.83
2018-09-04T05:13:24.548Z,8.37
2018-09-04T05:15:52.288Z,4.37
2018-09-04T05:18:21.232Z,4.30
2018-09-04T05:20:49.775Z,5.87
2018-09-04T05:23:17.653Z,4.50
2018-09-04T05:25:47.018Z,4.60
2018-09-04T05:28:14.626Z,5.60
2018-09-04T05:30:42.947Z,6.57
2018-09-04T05:33:10.710Z,6.57
2018-09-04T05:35:39.047Z,8.70
2018-09-04T05:38:07.400Z,9.80
2018-09-04T05:40:36.318Z,9.57
2018-09-04T05:43:04.677Z,10.67
2018-09-04T05:45:32.506Z,11.57
2018-09-04T05:48:03.267Z,23.67
2018-09-04T05:50:29.719Z,10.50
2018-09-04T05:52:58.088Z,10.83
2018-09-04T05:55:26.433Z,10.73
2018-09-04T05:57:54.205Z,11.77
2018-09-04T06:00:23.364Z,12.53
2018-09-04T06:02:51.228Z,11.27
2018-09-04T06:05:19.244Z,12.87
2018-09-04T06:07:47.577Z,13.97
2018-09-04T06:10:16.495Z,11.47
2018-09-04T06:12:44.846Z,10.80
2018-09-04T06:15:13.226Z,10.43
2018-09-04T06:17:40.970Z,9.80
2018-09-04T06:20:09.913Z,8.77
2018-09-04T06:22:38.230Z,9.30
2018-09-04T06:25:05.986Z,9.87
2018-09-04T06:27:34.960Z,9.67
2018-09-04T06:30:03.305Z,12.50
2018-09-04T06:32:31.651Z,14.10
2018-09-04T06:34:59.981Z,9.47
2018-09-04T06:37:27.734Z,9.67
2018-09-04T06:39:56.863Z,9.80
2018-09-04T06:42:25.197Z,9.87
2018-09-04T06:44:52.973Z,11.40
2018-09-04T06:47:21.877Z,9.63
2018-09-04T06:49:50.213Z,9.83
2018-09-04T06:52:18.560Z,9.70
2018-09-04T06:54:46.939Z,10.47
2018-09-04T06:57:15.834Z,16.37
2018-09-04T06:59:43.007Z,12.70
2018-09-04T07:02:11.344Z,10.47
2018-09-04T07:04:39.675Z,10.70
2018-09-04T07:07:08.005Z,11.47
2018-09-04T07:09:38.677Z,9.63
2018-09-04T07:12:05.703Z,8.83
2018-09-04T07:14:34.648Z,8.60
2018-09-04T07:17:03.079Z,8.53
2018-09-04T07:19:31.357Z,7.93
2018-09-04T07:21:59.721Z,9.23
2018-09-04T07:24:28.101Z,8.10
2018-09-04T07:26:55.852Z,7.73
2018-09-04T07:29:24.760Z,7.30
2018-09-04T07:31:53.350Z,7.57
2018-09-04T07:34:21.479Z,7.50
2018-09-04T07:36:49.253Z,14.20
2018-09-04T07:39:18.168Z,8.13
2018-09-04T07:41:45.979Z,16.20
2018-09-04T07:44:14.284Z,7.90
2018-09-04T07:46:43.196Z,8.33
2018-09-04T07:49:11.531Z,8.20
2018-09-04T07:51:39.286Z,6.07
2018-09-04T07:54:07.649Z,5.27
2018-09-04T07:56:36.591Z,5.43
2018-09-04T07:59:04.939Z,5.17
2018-09-04T08:01:33.280Z,5.53
2018-09-04T08:04:01.380Z,22.77
2018-09-04T08:06:30.116Z,5.83
2018-09-04T08:08:58.458Z,8.93
2018-09-04T08:11:26.783Z,5.90
2018-09-04T08:13:54.526Z,5.33
2018-09-04T08:16:23.467Z,4.77
2018-09-04T08:18:51.748Z,5.17
2018-09-04T08:21:19.514Z,5.23
2018-09-04T08:23:48.415Z,4.93
2018-09-04T08:26:16.802Z,5.23
2018-09-04T08:28:45.071Z,5.53
2018-09-04T08:31:12.818Z,5.23
2018-09-04T08:33:41.886Z,5.13
2018-09-04T08:36:10.222Z,5.30
2018-09-04T08:38:38.579Z,5.17
2018-09-04T08:41:06.909Z,5.20
2018-09-04T08:43:35.266Z,5.40
2018-09-04T08:46:03.812Z,5.47
2018-09-04T08:48:31.921Z,5.20
2018-09-04T08:51:00.493Z,5.03
2018-09-04T08:53:28.041Z,5.23
2018-09-04T08:55:56.382Z,5.23
2018-09-04T08:58:26.435Z,5.07
2018-09-04T09:00:54.171Z,6.33
2018-09-04T09:03:23.093Z,18.70
2018-09-04T09:05:50.894Z,7.50
2018-09-04T09:08:19.180Z,5.00
2018-09-04T09:10:48.079Z,5.20
2018-09-04T09:13:16.404Z,4.90
2018-09-04T09:15:44.141Z,5.03
2018-09-04T09:18:12.468Z,5.10
2018-09-04T09:20:40.789Z,5.03
2018-09-04T09:23:09.683Z,4.83
2018-09-04T09:25:37.432Z,5.30
2018-09-04T09:28:06.332Z,4.97
2018-09-04T09:30:34.667Z,4.97
2018-09-04T09:33:02.405Z,5.23
2018-09-04T09:35:30.733Z,5.00
2018-09-04T09:37:59.641Z,5.33
2018-09-04T09:40:27.964Z,4.77
2018-09-04T09:42:55.730Z,4.93
2018-09-04T09:45:24.041Z,5.10
2018-09-04T09:47:52.953Z,4.90
2018-09-04T09:50:21.280Z,4.47
2018-09-04T09:52:49.664Z,4.80
2018-09-04T09:55:17.380Z,4.70
2018-09-04T09:57:46.265Z,4.77
2018-09-04T10:00:14.591Z,4.67
2018-09-04T10:02:42.899Z,4.47
2018-09-04T10:05:11.241Z,4.70
2018-09-04T10:07:39.648Z,4.60
2018-09-04T10:10:07.945Z,15.80
2018-09-04T10:12:36.256Z,5.10
2018-09-04T10:15:04.580Z,4.80
2018-09-04T10:17:32.897Z,4.30
2018-09-04T10:20:01.340Z,4.57
2018-09-04T10:22:29.556Z,4.53
2018-09-04T10:24:57.305Z,4.30
2018-09-04T10:27:26.223Z,4.40
2018-09-04T10:29:53.957Z,4.60
2018-09-04T10:32:22.291Z,4.33
2018-09-04T10:34:50.627Z,4.40
2018-09-04T10:37:19.534Z,4.33
2018-09-04T10:39:48.232Z,4.43
2018-09-04T10:42:16.534Z,4.83
2018-09-04T10:45:05.293Z,5.00
2018-09-04T10:47:32.118Z,4.60
2018-09-04T10:50:00.489Z,4.37
2018-09-04T10:52:28.824Z,4.40
2018-09-04T10:55:00.498Z,4.90
2018-09-04T10:57:31.392Z,4.27
2018-09-04T10:59:59.789Z,4.60
2018-09-04T11:02:28.299Z,4.40
2018-09-04T11:04:56.538Z,4.10
2018-09-04T11:07:29.750Z,8.53
2018-09-04T11:09:58.132Z,18.70
2018-09-04T11:12:26.360Z,4.37
2018-09-04T11:14:54.365Z,4.27
2018-09-04T11:17:23.018Z,4.63
2018-09-04T11:19:51.343Z,4.20
2018-09-04T11:22:19.664Z,4.07
2018-09-04T11:24:47.398Z,4.10
2018-09-04T11:27:16.298Z,4.10
2018-09-04T11:29:44.116Z,4.20
2018-09-04T11:32:13.027Z,3.77
2018-09-04T11:34:40.787Z,4.00
2018-09-04T11:37:09.756Z,4.10
2018-09-04T11:39:37.541Z,4.13
2018-09-04T11:42:06.517Z,4.23
2018-09-04T11:44:34.868Z,3.63
2018-09-04T11:47:03.395Z,4.50
2018-09-04T11:49:32.197Z,3.90
2018-09-04T11:51:59.950Z,3.80
2018-09-04T11:54:28.885Z,4.20
2018-09-04T11:56:56.633Z,3.50
2018-09-04T11:59:25.595Z,3.80
2018-09-04T12:01:53.890Z,4.20
2018-09-04T12:04:21.664Z,3.53
2018-09-04T12:06:50.571Z,3.60
2018-09-04T12:09:18.924Z,4.53
2018-09-04T12:11:46.656Z,3.97
2018-09-04T12:14:15.020Z,6.40
2018-09-04T12:16:43.698Z,3.83
2018-09-04T12:19:11.739Z,4.07
2018-09-04T12:21:40.581Z,3.70
2018-09-04T12:24:09.116Z,3.97
2018-09-04T12:26:37.467Z,4.20
2018-09-04T12:29:06.018Z,3.87
2018-09-04T12:31:34.115Z,4.03
2018-09-04T12:34:02.464Z,4.00
2018-09-04T12:36:30.898Z,4.00
2018-09-04T12:38:59.200Z,4.00
2018-09-04T12:41:27.525Z,4.10
2018-09-04T12:43:55.284Z,3.80
2018-09-04T12:46:29.550Z,3.90
2018-09-04T12:48:57.702Z,8.37
2018-09-04T12:51:26.016Z,5.07
2018-09-04T12:53:57.037Z,4.30
2018-09-04T12:56:25.254Z,4.20
2018-09-04T12:58:53.729Z,4.50
2018-09-04T13:01:22.239Z,4.83
2018-09-04T13:03:51.749Z,4.10
2018-09-04T13:06:19.623Z,4.63
2018-09-04T13:08:48.660Z,10.73
2018-09-04T13:11:18.356Z,11.20
2018-09-04T13:14:10.179Z,9.50
2018-09-04T13:16:40.609Z,4.30
2018-09-04T13:19:09.013Z,4.80
2018-09-04T13:21:37.843Z,4.47
2018-09-04T13:24:07.902Z,4.20
2018-09-04T13:26:38.555Z,3.90
2018-09-04T13:29:06.980Z,4.07
2018-09-04T13:31:35.820Z,3.90
2018-09-04T13:34:04.214Z,4.77
2018-09-04T13:36:34.081Z,4.40
2018-09-04T13:39:03.645Z,4.53
2018-09-04T13:41:32.502Z,3.83
2018-09-04T13:44:01.400Z,4.30
2018-09-04T13:46:29.860Z,4.77
2018-09-04T13:48:58.426Z,4.07
2018-09-04T13:51:26.008Z,3.95
2018-09-04T13:53:54.345Z,4.10
2018-09-04T13:56:23.261Z,3.90
2018-09-04T13:58:51.591Z,3.65
2018-09-04T14:01:19.930Z,4.03
2018-09-04T14:03:47.693Z,4.00
2018-09-04T14:06:16.608Z,3.90
2018-09-04T14:08:44.347Z,4.65
2018-09-04T14:11:13.274Z,4.15
2018-09-04T14:13:41.590Z,4.50
2018-09-04T14:16:10.903Z,4.05
2018-09-04T14:18:38.646Z,4.03
2018-09-04T14:21:07.623Z,4.30
2018-09-04T14:23:35.883Z,4.32
2018-09-04T14:26:04.235Z,4.10
2018-09-04T14:29:06.425Z,4.15
2018-09-04T14:31:00.920Z,4.50
2018-09-04T14:33:29.263Z,4.85
2018-09-04T14:35:58.136Z,4.37
2018-09-04T14:38:26.462Z,3.72
2018-09-04T14:40:54.225Z,4.60
2018-09-04T14:43:23.177Z,4.53
2018-09-04T14:45:51.530Z,4.72
2018-09-04T14:48:20.551Z,5.25
2018-09-04T14:50:48.850Z,4.68
2018-09-04T14:53:17.173Z,4.95
2018-09-04T14:55:45.511Z,4.93
2018-09-04T14:58:13.852Z,4.68
2018-09-04T15:00:41.594Z,4.65
2018-09-04T15:03:10.800Z,4.20
2018-09-04T15:05:39.129Z,4.07
2018-09-04T15:08:07.467Z,5.53
2018-09-04T15:10:35.791Z,6.20
2018-09-04T15:13:04.756Z,4.40
2018-09-04T15:15:33.100Z,6.18
2018-09-04T15:18:01.442Z,4.40
2018-09-04T15:20:29.230Z,4.25
2018-09-04T15:22:58.206Z,4.15
2018-09-04T15:25:26.477Z,4.43
2018-09-04T15:27:55.491Z,4.50
2018-09-04T15:30:23.110Z,4.45
2018-09-04T15:32:51.675Z,4.95
2018-09-04T15:35:20.345Z,4.68
2018-09-04T15:37:48.754Z,4.60
2018-09-04T15:40:16.468Z,4.90
2018-09-04T15:42:46.696Z,6.53
2018-09-04T15:45:13.169Z,6.10
2018-09-04T15:47:41.498Z,6.28
2018-09-04T15:50:10.407Z,5.12
2018-09-04T15:52:38.782Z,5.90
2018-09-04T15:55:07.120Z,7.50
2018-09-04T15:57:35.491Z,7.00
2018-09-04T16:00:03.841Z,5.07
2018-09-04T16:02:31.584Z,5.10
2018-09-04T16:05:00.517Z,5.03
2018-09-04T16:07:28.851Z,5.20
2018-09-04T16:09:57.202Z,5.37
2018-09-04T16:12:25.530Z,5.40
2018-09-04T16:14:53.856Z,6.03
2018-09-04T16:17:21.619Z,5.47
2018-09-04T16:19:49.950Z,5.53
2018-09-04T16:22:18.859Z,5.50
2018-09-04T16:24:47.233Z,6.03
2018-09-04T16:27:15.524Z,5.93
2018-09-04T16:29:43.862Z,6.10
2018-09-04T16:32:12.197Z,5.60
2018-09-04T16:34:39.985Z,5.70
2018-09-04T16:37:08.927Z,8.30
2018-09-04T16:39:37.317Z,5.60
2018-09-04T16:42:05.681Z,5.80
2018-09-04T16:44:34.113Z,5.73
2018-09-04T16:47:02.865Z,5.77
2018-09-04T16:49:31.855Z,6.03
2018-09-04T16:51:59.493Z,6.23
2018-09-04T16:54:27.252Z,6.03
2018-09-04T16:56:56.137Z,6.43
2018-09-04T16:59:24.498Z,6.27
2018-09-04T17:01:52.814Z,6.23
2018-09-04T17:04:21.140Z,6.90
2018-09-04T17:06:49.474Z,6.40
2018-09-04T17:09:17.822Z,6.20
2018-09-04T17:11:46.148Z,5.73
2018-09-04T17:14:13.895Z,5.90
2018-09-04T17:16:42.811Z,6.20
2018-09-04T17:19:10.570Z,7.93
2018-09-04T17:21:39.496Z,7.53
2018-09-04T17:24:07.836Z,6.60
2018-09-04T17:26:36.170Z,6.57
2018-09-04T17:29:04.507Z,28.03
2018-09-04T17:31:32.866Z,11.73
2018-09-04T17:34:01.212Z,8.47
2018-09-04T17:36:29.557Z,8.70
2018-09-04T17:38:57.896Z,7.40
2018-09-04T17:41:25.640Z,6.70
2018-09-04T17:43:53.957Z,8.03
2018-09-04T17:46:22.869Z,6.93
2018-09-04T17:48:50.626Z,6.73
2018-09-04T17:51:19.771Z,7.53
2018-09-04T17:53:47.864Z,7.77
2018-09-04T17:56:16.194Z,7.07
2018-09-04T17:58:43.938Z,6.90
2018-09-04T18:01:12.851Z,6.60
2018-09-04T18:03:41.162Z,6.40
2018-09-04T18:06:09.857Z,7.10
2018-09-04T18:08:38.485Z,6.83
2018-09-04T18:11:06.613Z,7.07
2018-09-04T18:13:35.963Z,6.13
2018-09-04T18:16:04.300Z,8.43
2018-09-04T18:18:32.644Z,8.43
2018-09-04T18:21:01.250Z,7.57
2018-09-04T18:23:29.637Z,7.67
2018-09-04T18:25:58.368Z,7.67
2018-09-04T18:28:26.511Z,7.27
2018-09-04T18:30:54.943Z,7.30
2018-09-04T18:33:31.511Z,7.13
2018-09-04T18:35:59.949Z,8.27
2018-09-04T18:38:28.716Z,8.37
2018-09-04T18:40:58.857Z,8.20
2018-09-04T18:43:27.288Z,7.80
2018-09-04T18:45:56.761Z,7.53
2018-09-04T18:48:24.107Z,7.83
2018-09-04T18:50:52.454Z,6.93
2018-09-04T18:53:20.787Z,6.67
2018-09-04T18:55:49.108Z,7.03
2018-09-04T18:58:17.449Z,9.10
2018-09-04T19:00:45.797Z,16.93
2018-09-04T19:03:14.478Z,8.80
2018-09-04T19:05:43.617Z,8.07
2018-09-04T19:08:11.727Z,8.37
2018-09-04T19:10:40.190Z,8.63
2018-09-04T19:13:11.399Z,8.47
2018-09-04T19:15:39.500Z,9.43
2018-09-04T19:18:07.232Z,8.27
2018-09-04T19:20:37.174Z,7.97
2018-09-04T19:23:05.310Z,58.50
2018-09-04T19:25:33.651Z,8.33
2018-09-04T19:28:02.015Z,17.80
2018-09-04T19:30:29.798Z,8.50
2018-09-04T19:32:58.143Z,7.47
2018-09-04T19:35:27.081Z,7.93
2018-09-04T19:37:55.425Z,7.97
2018-09-04T19:40:23.300Z,8.40
2018-09-04T19:42:52.326Z,7.90
2018-09-04T19:45:20.440Z,7.90
2018-09-04T19:47:49.447Z,7.90
2018-09-04T19:50:17.779Z,7.67
2018-09-04T19:52:46.116Z,8.30
2018-09-04T19:55:13.868Z,7.97
2018-09-04T19:57:42.785Z,8.30
2018-09-04T20:00:11.120Z,7.53
2018-09-04T20:02:38.864Z,8.10
2018-09-04T20:05:07.789Z,7.63
2018-09-04T20:07:36.159Z,7.97
2018-09-04T20:10:04.502Z,8.33
2018-09-04T20:12:32.843Z,8.43
2018-09-04T20:15:01.437Z,8.43
2018-09-04T20:17:29.723Z,8.33
2018-09-04T20:19:58.057Z,41.00
2018-09-04T20:22:26.402Z,10.70
2018-09-04T20:24:54.765Z,8.30
2018-09-04T20:27:23.116Z,8.53
2018-09-04T20:29:50.939Z,8.53
2018-09-04T20:32:19.200Z,9.63
2018-09-04T20:34:47.537Z,10.20
2018-09-04T20:37:15.860Z,12.60
2018-09-04T20:39:44.211Z,13.63
2018-09-04T20:42:12.601Z,13.03
2018-09-04T20:44:41.537Z,13.33
2018-09-04T20:47:10.054Z,14.37
2018-09-04T20:49:54.745Z,14.97
2018-09-04T20:52:22.409Z,14.87
2018-09-04T20:54:51.760Z,14.33
2018-09-04T20:57:20.698Z,14.40
2018-09-04T21:00:00.847Z,14.70
2018-09-04T21:02:40.701Z,16.60
2018-09-04T21:05:21.420Z,15.47
2018-09-04T21:07:49.944Z,16.47
2018-09-04T21:10:19.568Z,17.87
2018-09-04T21:12:47.975Z,19.73
2018-09-04T21:15:17.654Z,19.97
2018-09-04T21:17:46.638Z,17.13
2018-09-04T21:20:15.276Z,17.00
2018-09-04T21:22:43.090Z,14.17
2018-09-04T21:25:12.050Z,13.80
2018-09-04T21:27:41.715Z,11.97
2018-09-04T21:30:09.883Z,11.53
2018-09-04T21:32:41.507Z,11.30
2018-09-04T21:35:10.295Z,11.50
2018-09-04T21:37:38.383Z,11.60
2018-09-04T21:40:07.524Z,11.50
2018-09-04T21:42:35.883Z,10.83
2018-09-04T21:45:03.759Z,10.60
2018-09-04T21:47:32.682Z,10.83
2018-09-04T21:50:00.440Z,10.53
2018-09-04T21:52:28.797Z,10.10
2018-09-04T21:54:57.134Z,11.00
2018-09-04T21:57:26.069Z,10.47
2018-09-04T21:59:54.402Z,10.97
2018-09-04T22:02:22.759Z,10.97
2018-09-04T22:04:51.106Z,11.00
2018-09-04T22:07:18.884Z,11.47
2018-09-04T22:09:47.874Z,10.67
2018-09-04T22:12:16.621Z,9.87
2018-09-04T22:14:45.239Z,10.23
2018-09-04T22:17:13.386Z,10.57
2018-09-04T22:19:42.528Z,9.70
2018-09-04T22:22:11.192Z,10.67
2018-09-04T22:24:39.487Z,13.10
2018-09-04T22:27:07.238Z,14.07
2018-09-04T22:29:36.196Z,16.17
2018-09-04T22:32:04.542Z,18.17
2018-09-04T22:34:32.888Z,17.87
2018-09-04T22:37:01.443Z,15.93
2018-09-04T22:39:29.561Z,15.40
2018-09-04T22:41:58.892Z,13.67
2018-09-04T22:44:25.662Z,13.03
2018-09-04T22:46:54.789Z,13.07
2018-09-04T22:49:23.328Z,13.23
2018-09-04T22:51:51.456Z,12.30
2018-09-04T22:54:20.404Z,12.67
2018-09-04T22:56:48.972Z,12.57
2018-09-04T22:59:18.717Z,12.30
2018-09-04T23:01:46.862Z,13.33
2018-09-04T23:04:15.173Z,12.90
2018-09-04T23:06:43.911Z,13.73
2018-09-04T23:09:12.029Z,12.90
2018-09-04T23:11:40.376Z,12.53
2018-09-04T23:14:08.710Z,13.17
2018-09-04T23:16:38.281Z,12.10
2018-09-04T23:19:06.416Z,12.87
2018-09-04T23:21:34.787Z,12.70
2018-09-04T23:24:03.134Z,12.40
2018-09-04T23:26:31.839Z,13.07
2018-09-04T23:29:00.226Z,14.53
2018-09-04T23:31:28.636Z,16.77
2018-09-04T23:33:57.557Z,18.00
2018-09-04T23:36:26.677Z,21.30
2018-09-04T23:38:54.999Z,21.00
2018-09-04T23:41:23.640Z,19.23
2018-09-04T23:43:52.956Z,17.23
2018-09-04T23:46:19.895Z,15.43
2018-09-04T23:48:48.837Z,14.53
2018-09-04T23:51:19.393Z,14.20
2018-09-04T23:53:46.778Z,13.13
2018-09-04T23:56:14.521Z,11.60
2018-09-04T23:58:43.431Z,11.23
